Time;durP1;ratioP1;P1;durP2;ratioP2;P2;SDS_P1;SDS_P2;PMS_P1;PMS_P2;Temp;Humidity;BMP_temperature;BMP_pressure;BME280_temperature;BME280_humidity;BME280_pressure;Samples;Min_cycle;Max_cycle;Signal;HPM_P1;HPM_P2
2021/12/19 00:08:27;;;;;;;6.80;4.12;;;;;;;2.35;100.00;99171.78;4302712;33;20053;-73
2021/12/19 00:10:13;;;;;;;9.15;4.80;;;;;;;2.33;100.00;99143.75;4302737;33;20013;-73
2021/12/19 00:12:40;;;;;;;7.53;4.60;;;;;;;2.15;100.00;99105.22;4302601;33;20485;-73
2021/12/19 00:15:07;;;;;;;8.35;4.37;;;;;;;2.33;100.00;99112.69;4302649;33;20187;-73
2021/12/19 00:17:33;;;;;;;8.40;4.93;;;;;;;2.51;100.00;99152.06;4302760;33;20455;-74
2021/12/19 00:20:00;;;;;;;10.80;5.10;;;;;;;2.41;100.00;99125.03;4302459;33;20045;-74
2021/12/19 00:22:26;;;;;;;8.57;4.12;;;;;;;2.58;100.00;99151.28;4302583;33;20038;-73
2021/12/19 00:24:53;;;;;;;7.55;4.55;;;;;;;2.37;100.00;99118.44;4302281;33;20045;-73
2021/12/19 00:27:19;;;;;;;9.55;5.07;;;;;;;2.67;100.00;99139.50;4301694;33;20035;-73
2021/12/19 00:29:46;;;;;;;6.43;4.65;;;;;;;2.57;100.00;99139.84;4302332;33;20041;-73
2021/12/19 00:32:13;;;;;;;8.82;4.97;;;;;;;2.69;100.00;99145.44;4302624;33;20118;-73
2021/12/19 00:34:39;;;;;;;7.53;4.62;;;;;;;2.66;100.00;99132.53;4301480;33;20078;-73
2021/12/19 00:37:05;;;;;;;7.32;4.43;;;;;;;2.77;100.00;99118.66;4302687;33;20066;-74
2021/12/19 00:39:32;;;;;;;8.02;5.30;;;;;;;2.65;100.00;99120.22;4289099;33;20080;-73
2021/12/19 00:41:59;;;;;;;7.22;4.82;;;;;;;2.46;100.00;99074.75;4289383;33;20026;-73
2021/12/19 00:44:26;;;;;;;8.20;4.18;;;;;;;2.70;100.00;99133.78;4302209;33;20030;-74
2021/12/19 00:47:07;;;;;;;13.65;5.62;;;;;;;2.64;100.00;99134.56;4289387;33;20063;-74
2021/12/19 00:49:35;;;;;;;9.10;5.32;;;;;;;2.50;100.00;99081.31;4302203;33;20043;-74
2021/12/19 00:52:03;;;;;;;7.43;4.68;;;;;;;2.36;100.00;99090.22;4300433;33;20076;-73
2021/12/19 00:54:29;;;;;;;7.78;4.40;;;;;;;2.69;100.00;99132.13;4302525;33;20357;-74
2021/12/19 00:56:56;;;;;;;7.55;4.90;;;;;;;2.78;100.00;99115.00;4302609;33;20058;-74
2021/12/19 00:59:23;;;;;;;5.18;3.83;;;;;;;2.71;100.00;99087.53;4290489;33;20110;-74
2021/12/19 01:01:49;;;;;;;7.12;5.05;;;;;;;2.65;100.00;99109.59;4291405;33;20028;-72
2021/12/19 01:04:17;;;;;;;7.03;5.05;;;;;;;2.68;100.00;99093.25;4303217;33;20045;-73
2021/12/19 01:06:45;;;;;;;11.88;5.50;;;;;;;2.78;100.00;99099.06;4300545;33;20062;-73
2021/12/19 01:09:12;;;;;;;11.75;5.72;;;;;;;2.49;100.00;99052.25;4288665;33;20029;-74
2021/12/19 01:11:39;;;;;;;11.35;6.60;;;;;;;2.81;100.00;99100.47;4275134;33;20352;-73
2021/12/19 01:14:08;;;;;;;7.85;5.85;;;;;;;2.81;100.00;99088.03;4300819;33;20033;-73
2021/12/19 01:16:34;;;;;;;11.60;6.15;;;;;;;2.77;100.00;99070.00;4301783;33;20067;-73
2021/12/19 01:19:00;;;;;;;9.73;5.32;;;;;;;2.78;100.00;99067.12;4300150;33;20445;-74
2021/12/19 01:21:27;;;;;;;10.20;6.32;;;;;;;2.76;100.00;99069.19;4301708;33;20071;-73
2021/12/19 01:23:54;;;;;;;9.27;5.28;;;;;;;2.75;100.00;99054.25;4300970;33;20029;-74
2021/12/19 01:26:20;;;;;;;6.45;5.00;;;;;;;2.68;100.00;99066.66;4300349;33;20063;-74
2021/12/19 01:28:47;;;;;;;7.80;4.82;;;;;;;2.62;100.00;99067.47;4300099;33;20059;-74
2021/12/19 01:31:14;;;;;;;7.43;5.65;;;;;;;2.69;100.00;99063.00;4301602;33;20097;-74
2021/12/19 01:33:40;;;;;;;13.62;6.37;;;;;;;2.77;100.00;99052.19;4288542;33;20063;-74
2021/12/19 01:36:14;;;;;;;8.35;4.62;;;;;;;2.46;100.00;99037.53;4301645;33;20025;-74
2021/12/19 01:38:41;;;;;;;6.85;5.32;;;;;;;2.55;100.00;99046.16;4301327;33;20050;-75
2021/12/19 01:41:08;;;;;;;6.60;4.57;;;;;;;2.63;100.00;99090.38;4301606;33;20340;-74
2021/12/19 01:43:34;;;;;;;5.95;4.62;;;;;;;2.57;100.00;99048.63;4301534;33;20076;-73
2021/12/19 01:46:01;;;;;;;7.87;4.85;;;;;;;2.51;100.00;99029.78;4301363;33;20074;-74
2021/12/19 01:48:28;;;;;;;8.30;5.40;;;;;;;2.65;100.00;99014.72;4300210;33;20383;-74
2021/12/19 01:50:55;;;;;;;4.50;3.53;;;;;;;2.57;100.00;99011.41;4301413;33;20055;-74
2021/12/19 01:53:22;;;;;;;8.07;4.40;;;;;;;2.57;100.00;99022.03;4301418;33;20429;-74
2021/12/19 01:55:49;;;;;;;7.47;5.25;;;;;;;2.65;100.00;98993.47;4300333;33;20382;-74
2021/12/19 01:58:17;;;;;;;5.47;4.28;;;;;;;2.64;100.00;98991.00;4301242;33;20037;-74
2021/12/19 02:00:53;;;;;;;4.60;3.78;;;;;;;2.66;100.00;98980.97;4287370;33;20435;-74
2021/12/19 02:03:21;;;;;;;5.80;3.80;;;;;;;2.63;100.00;98984.03;4301027;33;20039;-74
2021/12/19 02:05:48;;;;;;;3.12;2.83;;;;;;;2.64;100.00;98959.09;4301253;33;20033;-74
2021/12/19 02:08:15;;;;;;;4.70;3.25;;;;;;;2.66;100.00;98983.62;4298701;33;20051;-74
2021/12/19 02:10:42;;;;;;;6.07;3.55;;;;;;;2.65;100.00;98958.06;4301244;33;20202;-74
2021/12/19 02:13:12;;;;;;;7.05;3.87;;;;;;;2.70;100.00;98952.97;4301230;33;20041;-74
2021/12/19 02:15:41;;;;;;;3.58;2.37;;;;;;;2.67;100.00;98948.06;4300173;33;20059;-74
2021/12/19 02:18:17;;;;;;;4.35;3.35;;;;;;;2.40;100.00;98889.50;4301184;33;20038;-74
2021/12/19 02:20:50;;;;;;;5.85;4.40;;;;;;;2.83;100.00;98941.56;4301221;33;20347;-73
2021/12/19 02:23:22;;;;;;;5.43;3.25;;;;;;;2.71;100.00;98922.69;4301267;33;20355;-74
2021/12/19 02:25:49;;;;;;;5.25;3.47;;;;;;;2.64;100.00;98884.66;4291811;33;20059;-74
2021/12/19 02:28:15;;;;;;;8.27;4.20;;;;;;;2.77;100.00;98892.66;4301297;33;20053;-74
2021/12/19 02:30:43;;;;;;;5.78;3.47;;;;;;;2.86;100.00;98888.78;4300155;33;20138;-74
2021/12/19 02:33:14;;;;;;;5.93;3.55;;;;;;;2.78;100.00;98891.62;4301199;33;20033;-74
2021/12/19 02:35:45;;;;;;;4.47;3.28;;;;;;;2.85;100.00;98892.44;4301207;33;20035;-73
2021/12/19 02:49:04;;;;;;;3.70;3.00;;;;;;;3.01;100.00;98831.91;4301172;33;20030;-73
2021/12/19 02:51:34;;;;;;;7.32;3.90;;;;;;;3.02;100.00;98839.69;4303706;33;20345;-73
2021/12/19 02:54:03;;;;;;;6.28;3.80;;;;;;;3.06;100.00;98848.06;4304121;33;20033;-73
2021/12/19 02:56:30;;;;;;;10.45;4.85;;;;;;;2.88;100.00;98780.34;4303675;33;20053;-73
2021/12/19 02:58:56;;;;;;;7.37;4.03;;;;;;;3.15;100.00;98833.53;4303655;33;20049;-73
2021/12/19 03:01:25;;;;;;;5.20;3.95;;;;;;;2.85;100.00;98788.75;4303658;33;20046;-73
2021/12/19 03:03:51;;;;;;;5.68;2.87;;;;;;;3.15;100.00;98836.19;4303611;33;20074;-74
2021/12/19 03:06:18;;;;;;;3.35;2.83;;;;;;;2.90;100.00;98788.97;4303657;33;20161;-74
2021/12/19 03:08:48;;;;;;;4.45;3.08;;;;;;;3.09;100.00;98803.28;4303560;33;20082;-74
2021/12/19 03:17:57;;;;;;;3.25;3.00;;;;;;;3.17;100.00;98814.72;4303541;33;20356;-74
2021/12/19 03:19:18;;;;;;;4.97;2.92;;;;;;;2.99;100.00;98794.06;4303607;33;20406;-73
2021/12/19 03:21:45;;;;;;;5.15;3.15;;;;;;;3.22;100.00;98797.13;4302416;33;20040;-74
2021/12/19 03:24:11;;;;;;;4.57;2.60;;;;;;;3.28;100.00;98838.84;4303377;33;20067;-73
2021/12/19 03:26:38;;;;;;;5.50;3.78;;;;;;;3.31;100.00;98805.69;4302003;33;20067;-73
2021/12/19 03:29:05;;;;;;;5.87;3.15;;;;;;;2.94;100.00;98735.37;4300903;33;20079;-74
2021/12/19 03:31:31;;;;;;;4.45;2.87;;;;;;;3.05;100.00;98766.66;4303239;33;20040;-74
2021/12/19 03:33:59;;;;;;;6.75;3.45;;;;;;;3.38;100.00;98795.00;4290168;33;20029;-74
2021/12/19 03:36:27;;;;;;;4.37;3.33;;;;;;;3.37;100.00;98798.72;4290197;33;20053;-74
2021/12/19 03:38:58;;;;;;;2.85;2.62;;;;;;;3.33;100.00;98773.53;4302204;33;20048;-74
2021/12/19 03:41:33;;;;;;;6.68;3.70;;;;;;;3.35;100.00;98782.13;4303207;33;20017;-74
2021/12/19 03:44:04;;;;;;;7.15;3.42;;;;;;;3.30;100.00;98765.97;4303185;33;20017;-74
2021/12/19 03:46:31;;;;;;;5.30;3.87;;;;;;;3.20;100.00;98706.00;4301454;33;20475;-74
2021/12/19 03:48:58;;;;;;;2.83;2.60;;;;;;;3.41;100.00;98775.97;4303172;33;20025;-74
2021/12/19 03:51:25;;;;;;;6.18;3.37;;;;;;;3.08;100.00;98699.72;4303234;33;20496;-74
2021/12/19 03:53:52;;;;;;;2.97;2.22;;;;;;;3.17;100.00;98687.81;4303018;33;20037;-74
2021/12/19 03:56:18;;;;;;;7.32;3.80;;;;;;;3.46;100.00;98749.53;4301859;33;20086;-74
2021/12/19 03:58:44;;;;;;;4.15;3.47;;;;;;;3.42;100.00;98748.31;4290015;33;20040;-73
2021/12/19 04:01:11;;;;;;;8.38;3.85;;;;;;;3.55;100.00;98726.97;4302638;33;20049;-73
2021/12/19 04:03:38;;;;;;;7.70;3.55;;;;;;;3.49;100.00;98732.31;4302788;33;20091;-74
2021/12/19 04:06:05;;;;;;;5.75;3.30;;;;;;;3.48;100.00;98736.84;4302885;33;20435;-74
2021/12/19 04:08:31;;;;;;;6.60;3.75;;;;;;;3.54;100.00;98736.00;4302831;33;20037;-75
2021/12/19 04:10:58;;;;;;;7.72;5.07;;;;;;;3.52;100.00;98721.25;4301176;33;20053;-75
2021/12/19 04:13:25;;;;;;;6.55;4.57;;;;;;;3.59;100.00;98732.69;4289741;33;20062;-74
2021/12/19 04:15:52;;;;;;;6.28;4.25;;;;;;;3.21;100.00;98702.34;4302665;33;20055;-74
2021/12/19 04:18:19;;;;;;;7.12;4.20;;;;;;;3.52;100.00;98716.75;4302480;33;20071;-74
2021/12/19 04:20:46;;;;;;;6.72;4.45;;;;;;;3.57;100.00;98746.19;4287875;33;20046;-74
2021/12/19 04:23:13;;;;;;;10.90;5.30;;;;;;;3.61;100.00;98736.78;4302511;33;20080;-74
2021/12/19 04:25:40;;;;;;;11.35;5.20;;;;;;;3.61;100.00;98704.84;4304303;33;20436;-74
2021/12/19 04:28:07;;;;;;;10.48;4.93;;;;;;;3.56;100.00;98771.22;4302450;33;20049;-74
2021/12/19 04:30:33;;;;;;;9.15;4.75;;;;;;;3.52;100.00;98668.81;4302926;33;20413;-75
2021/12/19 04:33:08;;;;;;;11.38;5.93;;;;;;;3.67;100.00;98713.84;4302817;33;20439;-74
2021/12/19 04:35:37;;;;;;;13.95;5.60;;;;;;;3.64;100.00;98704.41;4302424;33;20021;-74
2021/12/19 04:40:47;;;;;;;17.08;5.90;;;;;;;3.72;100.00;98721.16;4302361;33;20081;-74
2021/12/19 04:56:37;;;;;;;10.65;5.25;;;;;;;3.93;100.00;98707.53;4302294;33;20030;-75
2021/12/19 05:01:57;;;;;;;9.02;5.15;;;;;;;3.83;100.00;98656.59;4302174;33;20045;-74
2021/12/19 05:04:41;;;;;;;9.10;4.00;;;;;;;3.75;100.00;98667.47;4300492;33;20371;-75
2021/12/19 05:15:27;;;;;;;10.45;4.45;;;;;;;3.87;100.00;98735.00;4302076;33;20386;-74
2021/12/19 05:18:01;;;;;;;12.60;5.60;;;;;;;3.95;100.00;98699.31;4301915;33;20102;-74
2021/12/19 05:20:29;;;;;;;7.28;3.83;;;;;;;3.92;100.00;98681.91;4313090;33;20059;-74
2021/12/19 05:23:04;;;;;;;9.90;4.40;;;;;;;3.57;100.00;98631.72;4302125;33;20036;-74
2021/12/19 05:25:31;;;;;;;6.55;4.28;;;;;;;3.93;100.00;98675.56;4301443;33;20063;-75
2021/12/19 05:27:58;;;;;;;6.68;3.90;;;;;;;3.52;100.00;98625.44;4302013;33;20059;-74
2021/12/19 05:30:25;;;;;;;6.93;3.55;;;;;;;3.88;100.00;98703.84;4301598;33;20029;-74
2021/12/19 05:32:54;;;;;;;10.50;3.65;;;;;;;3.91;100.00;98656.31;4300291;33;20048;-74
2021/12/19 05:35:48;;;;;;;6.78;3.58;;;;;;;3.54;100.00;98618.88;4301624;33;20045;-74
2021/12/19 05:46:25;;;;;;;7.80;3.42;;;;;;;3.85;100.00;98662.50;4301766;33;20024;-72
2021/12/19 05:48:53;;;;;;;7.12;2.97;;;;;;;3.84;100.00;98649.41;4301549;33;20407;-72
2021/12/19 05:51:19;;;;;;;14.00;4.72;;;;;;;3.97;100.00;98674.13;4299843;33;20370;-72
2021/12/19 05:53:46;;;;;;;15.82;3.92;;;;;;;3.92;100.00;98651.81;4287615;33;20152;-73
2021/12/19 05:56:13;;;;;;;13.68;3.90;;;;;;;3.94;100.00;98677.19;4301735;33;20565;-73
2021/12/19 05:58:39;;;;;;;6.55;2.80;;;;;;;3.95;100.00;98675.34;4301394;33;20041;-73
2021/12/19 06:01:06;;;;;;;12.27;4.25;;;;;;;3.82;100.00;98673.59;4301397;33;20049;-75
2021/12/19 06:03:33;;;;;;;16.98;3.70;;;;;;;3.81;100.00;98677.28;4301249;33;20075;-73
2021/12/19 06:05:59;;;;;;;9.98;3.35;;;;;;;3.88;100.00;98683.37;4300555;33;20336;-73
2021/12/19 06:08:26;;;;;;;7.40;4.12;;;;;;;3.80;100.00;98680.97;4288277;33;20063;-73
2021/12/19 06:10:53;;;;;;;7.25;3.92;;;;;;;3.82;100.00;98668.25;4300321;33;20083;-73
2021/12/19 06:13:19;;;;;;;7.00;3.03;;;;;;;3.52;100.00;98631.56;4301248;33;20086;-73
2021/12/19 06:15:49;;;;;;;10.27;3.55;;;;;;;3.71;100.00;98671.59;4301254;33;20040;-73
2021/12/19 06:18:16;;;;;;;11.15;3.08;;;;;;;3.72;100.00;98676.72;4300442;33;20021;-73
2021/12/19 06:20:43;;;;;;;7.53;3.30;;;;;;;3.67;100.00;98681.03;4302039;33;20089;-72
2021/12/19 06:23:09;;;;;;;11.45;3.75;;;;;;;3.58;100.00;98662.66;4302059;33;20059;-73
2021/12/19 06:25:36;;;;;;;10.15;4.78;;;;;;;3.61;100.00;98688.84;4305024;33;20383;-73
2021/12/19 06:28:03;;;;;;;8.77;3.37;;;;;;;3.42;100.00;98652.50;4304950;33;20099;-73
2021/12/19 06:30:30;;;;;;;6.32;3.05;;;;;;;3.56;100.00;98662.06;4303454;33;20063;-73
2021/12/19 06:32:56;;;;;;;7.07;3.37;;;;;;;3.59;100.00;98690.91;4302345;33;20059;-73
2021/12/19 06:35:28;;;;;;;4.53;2.92;;;;;;;3.18;100.00;98625.59;4289608;33;20508;-73
2021/12/19 06:37:55;;;;;;;16.30;4.97;;;;;;;3.51;100.00;98672.53;4302904;33;20031;-73
2021/12/19 06:40:23;;;;;;;17.23;3.92;;;;;;;3.51;100.00;98669.88;4302218;33;20067;-73
2021/12/19 06:42:50;;;;;;;9.38;3.42;;;;;;;3.58;100.00;98662.66;4303925;33;20457;-73
2021/12/19 06:45:17;;;;;;;4.15;1.80;;;;;;;3.50;100.00;98640.81;4302843;33;20164;-73
2021/12/19 06:47:45;;;;;;;3.25;2.80;;;;;;;3.54;100.00;98653.47;4303884;33;20062;-73
2021/12/19 06:50:15;;;;;;;15.93;2.90;;;;;;;3.47;100.00;98642.03;4303946;33;20064;-73
2021/12/19 06:52:43;;;;;;;5.05;2.87;;;;;;;3.53;100.00;98661.69;4303830;33;20055;-74
2021/12/19 06:55:12;;;;;;;8.35;2.37;;;;;;;3.54;100.00;98666.78;4303507;33;20045;-74
2021/12/19 06:57:39;;;;;;;10.48;3.62;;;;;;;3.31;100.00;98613.25;4303357;33;20366;-74
2021/12/19 07:00:08;;;;;;;11.90;3.78;;;;;;;3.31;100.00;98613.25;4303893;33;20063;-74
2021/12/19 07:02:35;;;;;;;9.05;2.83;;;;;;;3.40;100.00;98638.59;4302097;33;20041;-73
2021/12/19 07:05:02;;;;;;;2.28;1.98;;;;;;;3.37;100.00;98644.34;4302683;33;20425;-71
2021/12/19 07:07:29;;;;;;;5.47;2.53;;;;;;;3.42;100.00;98641.88;4303625;33;20028;-76
2021/12/19 07:09:56;;;;;;;10.13;2.78;;;;;;;3.40;100.00;98638.59;4302927;33;20049;-75
2021/12/19 07:12:30;;;;;;;7.60;3.05;;;;;;;3.27;100.00;98603.03;4302922;33;20355;-74
2021/12/19 07:14:58;;;;;;;13.02;3.45;;;;;;;3.26;100.00;98600.59;4303498;33;20396;-74
2021/12/19 07:17:25;;;;;;;5.07;2.72;;;;;;;3.54;100.00;98666.78;4301790;33;20079;-73
2021/12/19 07:19:51;;;;;;;5.12;2.42;;;;;;;3.51;100.00;98656.56;4303776;33;20348;-73
2021/12/19 07:22:19;;;;;;;8.93;2.50;;;;;;;3.29;100.00;98621.47;4302697;33;20404;-73
2021/12/19 07:24:45;;;;;;;7.43;3.28;;;;;;;3.54;100.00;98648.16;4303391;33;20344;-74
2021/12/19 07:27:13;;;;;;;6.35;3.22;;;;;;;3.31;100.00;98613.25;4290419;33;20021;-73
2021/12/19 07:29:40;;;;;;;8.32;3.22;;;;;;;3.55;100.00;98651.63;4302205;33;20037;-72
2021/12/19 07:32:08;;;;;;;8.68;3.15;;;;;;;3.56;100.00;98651.41;4301674;33;20045;-73
2021/12/19 07:34:36;;;;;;;4.12;2.17;;;;;;;3.36;100.00;98622.22;4303103;33;20081;-73
2021/12/19 07:37:04;;;;;;;4.12;3.03;;;;;;;3.62;100.00;98637.25;4302896;33;20085;-72
2021/12/19 07:42:00;;;;;;;6.65;2.87;;;;;;;3.58;100.00;98636.03;4303181;33;20407;-73
2021/12/19 07:44:27;;;;;;;6.93;3.62;;;;;;;3.59;100.00;98643.00;4303161;33;20033;-72
2021/12/19 07:47:00;;;;;;;8.15;2.80;;;;;;;3.55;100.00;98647.09;4303260;33;20058;-73
2021/12/19 07:49:27;;;;;;;6.37;2.92;;;;;;;3.53;100.00;98643.84;4302934;33;20063;-74
2021/12/19 07:51:55;;;;;;;6.68;3.17;;;;;;;3.22;100.00;98594.88;4289848;33;20415;-73
2021/12/19 07:54:21;;;;;;;13.00;3.50;;;;;;;3.43;100.00;98616.88;4301179;33;20075;-73
2021/12/19 07:56:48;;;;;;;5.93;2.85;;;;;;;3.43;100.00;98612.38;4302420;33;20436;-73
2021/12/19 07:59:15;;;;;;;11.43;3.80;;;;;;;3.53;100.00;98627.06;4302830;33;20063;-73
2021/12/19 08:01:41;;;;;;;4.85;2.25;;;;;;;3.25;100.00;98557.19;4302896;33;20053;-74
2021/12/19 08:04:08;;;;;;;8.02;2.70;;;;;;;3.53;100.00;98609.25;4302002;33;20040;-73
2021/12/19 08:06:34;;;;;;;9.38;2.83;;;;;;;3.45;100.00;98620.16;4303160;33;20038;-74
2021/12/19 08:09:10;;;;;;;5.97;2.67;;;;;;;3.53;100.00;98617.22;4303257;33;20297;-74
2021/12/19 08:11:41;;;;;;;7.35;2.67;;;;;;;3.32;100.00;98582.94;4301373;33;20059;-74
2021/12/19 08:14:10;;;;;;;8.13;3.22;;;;;;;3.43;100.00;98623.03;4289606;33;20035;-73
2021/12/19 08:16:37;;;;;;;6.60;2.42;;;;;;;3.45;100.00;98610.31;4302528;33;20049;-73
2021/12/19 08:19:04;;;;;;;9.20;2.80;;;;;;;3.51;100.00;98624.62;4289607;33;20080;-73
2021/12/19 08:21:30;;;;;;;5.00;2.85;;;;;;;3.55;100.00;98604.50;4301336;33;20067;-73
2021/12/19 08:24:00;;;;;;;9.93;3.87;;;;;;;3.68;100.00;98602.81;4302505;33;20049;-73
2021/12/19 08:26:27;;;;;;;4.05;2.33;;;;;;;3.63;100.00;98604.25;4300948;33;20067;-73
2021/12/19 08:28:53;;;;;;;6.53;2.67;;;;;;;3.73;100.00;98605.63;4301349;33;20091;-73
2021/12/19 08:31:20;;;;;;;7.45;2.42;;;;;;;3.64;100.00;98597.09;4300751;33;20041;-73
2021/12/19 08:33:47;;;;;;;5.75;2.10;;;;;;;3.32;100.00;98545.69;4289278;33;20107;-73
2021/12/19 08:36:14;;;;;;;6.25;2.12;;;;;;;3.70;100.00;98620.22;4288928;33;20075;-74
2021/12/19 08:38:41;;;;;;;5.25;2.92;;;;;;;3.60;100.00;98607.34;4302204;33;20067;-73
2021/12/19 08:41:08;;;;;;;4.07;2.10;;;;;;;3.64;100.00;98608.56;4302450;33;20038;-73
2021/12/19 08:43:34;;;;;;;7.37;2.50;;;;;;;3.56;100.00;98590.19;4289179;33;20033;-73
2021/12/19 08:46:02;;;;;;;4.62;1.83;;;;;;;3.68;100.00;98586.81;4302079;33;20091;-73
2021/12/19 08:48:28;;;;;;;3.75;2.10;;;;;;;3.64;100.00;98600.56;4288340;33;20038;-72
2021/12/19 08:50:54;;;;;;;10.60;2.20;;;;;;;3.68;100.00;98608.94;4289139;33;20037;-73
2021/12/19 08:53:21;;;;;;;9.88;2.67;;;;;;;3.69;100.00;98631.06;4289111;33;20032;-74
2021/12/19 08:55:48;;;;;;;6.10;2.80;;;;;;;3.35;100.00;98567.37;4301988;33;20095;-74
2021/12/19 08:58:14;;;;;;;5.57;2.60;;;;;;;3.64;100.00;98613.06;4301962;33;20318;-73
2021/12/19 09:00:41;;;;;;;5.97;2.92;;;;;;;3.61;100.00;98598.34;4300632;33;20063;-73
2021/12/19 09:03:09;;;;;;;4.65;2.35;;;;;;;3.46;100.00;98571.19;4301911;33;20067;-73
2021/12/19 09:05:36;;;;;;;10.25;4.12;;;;;;;3.64;100.00;98632.50;4302165;33;20402;-73
2021/12/19 09:08:04;;;;;;;6.53;3.90;;;;;;;3.64;100.00;98613.06;4301101;33;20092;-73
2021/12/19 09:10:30;;;;;;;6.22;2.70;;;;;;;3.69;100.00;98594.59;4300465;33;20034;-73
2021/12/19 09:12:57;;;;;;;8.82;3.30;;;;;;;3.44;100.00;98565.28;4301840;33;20063;-76
2021/12/19 09:15:24;;;;;;;7.87;2.33;;;;;;;3.68;100.00;98630.22;4299176;33;20059;-75
2021/12/19 09:17:51;;;;;;;7.97;2.70;;;;;;;3.68;100.00;98613.44;4300505;33;20395;-77
2021/12/19 09:20:18;;;;;;;10.13;2.83;;;;;;;3.13;100.00;98516.34;4299611;33;20083;-76
2021/12/19 09:22:45;;;;;;;11.15;2.87;;;;;;;3.48;100.00;98565.66;4299125;33;20051;-76
2021/12/19 09:25:11;;;;;;;14.70;2.90;;;;;;;3.72;100.00;98604.81;4298753;33;20168;-76
2021/12/19 09:27:38;;;;;;;14.93;3.22;;;;;;;3.51;100.00;98560.72;4287674;33;20047;-76
2021/12/19 09:30:06;;;;;;;10.18;2.85;;;;;;;3.58;100.00;98572.12;4300143;33;20425;-75
2021/12/19 09:35:07;;;;;;;10.18;3.35;;;;;;;3.71;100.00;98602.38;4300115;33;20029;-76
2021/12/19 09:37:36;;;;;;;6.95;2.90;;;;;;;3.73;100.00;98597.63;4300254;33;20234;-75
2021/12/19 09:40:09;;;;;;;3.67;2.58;;;;;;;3.50;100.00;98548.44;4286884;33;20093;-75
2021/12/19 09:42:37;;;;;;;8.07;3.37;;;;;;;3.71;100.00;98581.88;4299559;33;20064;-75
2021/12/19 09:45:05;;;;;;;9.40;3.08;;;;;;;3.71;100.00;98578.41;4286753;33;20069;-75
2021/12/19 09:47:33;;;;;;;4.53;2.83;;;;;;;3.70;100.00;98600.72;4287130;33;20059;-75
2021/12/19 09:50:00;;;;;;;8.40;2.17;;;;;;;3.55;100.00;98534.50;4298353;33;20055;-76
2021/12/19 09:52:28;;;;;;;3.87;2.22;;;;;;;3.80;100.00;98585.09;4299851;33;20037;-75
2021/12/19 09:54:54;;;;;;;5.80;2.85;;;;;;;3.79;100.00;98562.16;4298635;33;20029;-76
2021/12/19 09:57:23;;;;;;;7.47;3.05;;;;;;;3.53;100.00;98516.06;4299963;33;20171;-75
2021/12/19 09:59:51;;;;;;;5.68;2.15;;;;;;;3.74;100.00;98556.69;4300665;33;20037;-76
2021/12/19 10:02:18;;;;;;;6.80;3.03;;;;;;;3.80;100.00;98553.16;4299771;33;20045;-75
2021/12/19 10:04:46;;;;;;;9.25;2.85;;;;;;;3.53;100.00;98500.09;4286494;33;20439;-75
2021/12/19 10:07:23;;;;;;;5.75;2.83;;;;;;;3.88;100.00;98531.56;4301242;33;20063;-76
2021/12/19 10:10:02;;;;;;;8.27;2.70;;;;;;;3.86;100.00;98538.97;4287160;33;20025;-77
2021/12/19 10:15:12;;;;;;;9.25;2.30;;;;;;;3.88;100.00;98502.25;4300126;33;20025;-75
2021/12/19 10:17:39;;;;;;;9.63;3.30;;;;;;;3.68;100.00;98469.66;4287128;33;20056;-76
2021/12/19 10:20:09;;;;;;;6.80;2.92;;;;;;;3.93;100.00;98507.75;4299598;33;20481;-75
2021/12/19 10:22:37;;;;;;;3.47;2.65;;;;;;;3.93;100.00;98491.75;4299169;33;20067;-75
2021/12/19 10:25:09;;;;;;;8.43;2.95;;;;;;;3.72;100.00;98449.53;4299537;33;20408;-75
2021/12/19 10:27:37;;;;;;;5.68;3.08;;;;;;;3.75;100.00;98491.72;4299882;33;20382;-75
2021/12/19 10:30:09;;;;;;;7.47;2.50;;;;;;;3.70;100.00;98456.94;4299370;33;20064;-75
2021/12/19 10:32:36;;;;;;;;;;;;;;;3.77;100.00;98482.47;4287882;33;20038;-76
2021/12/19 10:35:17;;;;;;;5.85;2.40;;;;;;;3.94;100.00;98493.41;4287961;33;19976;-76
2021/12/19 10:37:44;;;;;;;5.87;2.85;;;;;;;3.64;100.00;98432.84;4300690;33;20168;-76
2021/12/19 10:40:12;;;;;;;4.95;3.42;;;;;;;3.87;100.00;98458.00;4300005;33;20082;-75
2021/12/19 10:43:01;;;;;;;10.57;3.30;;;;;;;3.93;100.00;98477.63;4286630;33;20056;-76
2021/12/19 10:45:51;;;;;;;5.25;2.97;;;;;;;3.97;100.00;98469.00;4300454;33;20059;-77
2021/12/19 10:48:25;;;;;;;8.18;3.25;;;;;;;3.97;100.00;98458.34;4299587;33;20047;-76
2021/12/19 10:51:00;;;;;;;6.97;2.65;;;;;;;4.01;100.00;98448.03;4299419;33;20047;-77
2021/12/19 10:53:38;;;;;;;7.28;2.50;;;;;;;4.00;100.00;98447.25;4299738;33;20014;-76
2021/12/19 10:56:23;;;;;;;13.43;3.47;;;;;;;4.06;100.00;98450.84;4299870;33;20359;-77
2021/12/19 10:59:01;;;;;;;7.90;3.08;;;;;;;4.02;100.00;98438.19;4298850;33;20051;-76
2021/12/19 11:01:36;;;;;;;5.00;3.40;;;;;;;3.97;100.00;98466.31;4300767;33;20020;-76
2021/12/19 11:04:07;;;;;;;9.07;3.03;;;;;;;3.77;100.00;98415.91;4287048;33;20163;-76
2021/12/19 11:06:47;;;;;;;6.65;2.92;;;;;;;3.89;100.00;98412.50;4299314;33;20037;-77
2021/12/19 11:09:17;;;;;;;13.68;3.08;;;;;;;4.10;100.00;98436.06;4298494;33;20024;-76
2021/12/19 11:11:46;;;;;;;7.47;3.33;;;;;;;3.81;100.00;98389.66;4288058;33;20049;-76
2021/12/19 11:14:18;;;;;;;6.68;2.62;;;;;;;4.14;100.00;98431.91;4288557;33;20029;-76
2021/12/19 11:16:45;;;;;;;;;;;;;;;4.10;100.00;98414.75;4301529;33;20033;-76
2021/12/19 11:19:13;;;;;;;8.95;2.97;;;;;;;4.05;100.00;98427.09;4301027;33;19948;-77
2021/12/19 11:21:41;;;;;;;8.93;2.83;;;;;;;3.85;100.00;98366.06;4288826;33;20041;-78
2021/12/19 11:24:11;;;;;;;5.30;3.00;;;;;;;4.02;100.00;98407.06;4301852;33;20125;-75
2021/12/19 11:26:40;;;;;;;5.18;2.12;;;;;;;4.10;100.00;98408.59;4300447;33;20362;-75
2021/12/19 11:29:08;;;;;;;13.20;3.03;;;;;;;4.12;100.00;98411.88;4302650;33;20420;-75
2021/12/19 11:31:38;;;;;;;7.20;2.75;;;;;;;3.87;100.00;98367.47;4302778;33;20033;-76
2021/12/19 11:34:22;;;;;;;9.68;3.30;;;;;;;4.07;100.00;98385.87;4302101;33;20045;-76
2021/12/19 11:37:12;;;;;;;9.45;3.15;;;;;;;4.14;100.00;98399.13;4276206;33;20041;-75
2021/12/19 11:39:42;;;;;;;4.18;3.00;;;;;;;3.91;100.00;98346.50;4300518;33;20037;-75
2021/12/19 11:42:15;;;;;;;7.75;2.83;;;;;;;4.15;100.00;98390.09;4301971;33;20032;-75
2021/12/19 11:45:25;;;;;;;9.52;3.40;;;;;;;4.03;100.00;98381.22;4276755;33;20053;-76
2021/12/19 11:47:53;;;;;;;9.25;3.92;;;;;;;4.22;100.00;98396.16;4301647;33;20025;-76
2021/12/19 11:50:28;;;;;;;6.57;2.95;;;;;;;4.20;100.00;98382.25;4302094;33;20047;-76
2021/12/19 11:53:03;;;;;;;7.97;3.28;;;;;;;3.89;100.00;98333.41;4302171;33;20390;-75
2021/12/19 11:55:41;;;;;;;16.00;4.22;;;;;;;4.21;100.00;98378.53;4301664;33;20021;-75
2021/12/19 11:58:11;;;;;;;10.07;2.95;;;;;;;4.04;100.00;98345.53;4288461;33;20025;-75
2021/12/19 12:00:40;;;;;;;8.73;3.75;;;;;;;4.20;100.00;98382.25;4288035;33;20063;-75
2021/12/19 12:03:13;;;;;;;10.20;4.50;;;;;;;4.08;100.00;98338.72;4300014;33;20025;-75
2021/12/19 12:05:51;;;;;;;11.18;3.05;;;;;;;4.29;100.00;98358.75;4288425;33;20025;-75
2021/12/19 12:08:25;;;;;;;11.57;3.50;;;;;;;3.91;100.00;98318.03;4300083;33;20021;-75
2021/12/19 12:10:57;;;;;;;6.62;2.53;;;;;;;4.27;100.00;98366.97;4288182;33;20041;-75
2021/12/19 12:13:40;;;;;;;8.00;2.65;;;;;;;3.96;100.00;98323.50;4301174;33;20033;-75
2021/12/19 12:16:26;;;;;;;13.75;3.80;;;;;;;4.11;100.00;98340.94;4315253;33;20419;-75
2021/12/19 12:19:02;;;;;;;4.07;2.55;;;;;;;4.07;100.00;98313.12;4316581;33;20408;-76
2021/12/19 12:21:42;;;;;;;6.85;2.70;;;;;;;3.99;100.00;98301.75;4316201;33;20036;-75
2021/12/19 12:24:12;;;;;;;6.03;2.75;;;;;;;3.98;100.00;98294.78;4316940;33;20029;-74
2021/12/19 12:26:54;;;;;;;10.65;2.72;;;;;;;3.89;100.00;98284.66;4315646;33;20390;-74
2021/12/19 12:29:22;;;;;;;3.85;2.10;;;;;;;4.19;100.00;98316.66;4315649;33;20017;-73
2021/12/19 12:31:50;;;;;;;6.65;2.87;;;;;;;4.08;100.00;98330.75;4315494;33;20052;-75
2021/12/19 12:34:17;;;;;;;7.97;2.95;;;;;;;3.99;100.00;98292.97;4316197;33;20045;-74
2021/12/19 12:36:45;;;;;;;9.32;4.03;;;;;;;4.26;100.00;98305.91;4316280;33;20078;-75
2021/12/19 12:39:18;;;;;;;8.70;3.37;;;;;;;4.03;100.00;98261.34;4315887;33;20045;-75
2021/12/19 12:44:19;;;;;;;9.50;3.12;;;;;;;4.26;100.00;98306.72;4315646;33;20070;-75
2021/12/19 12:46:46;;;;;;;8.90;3.92;;;;;;;4.09;100.00;98311.88;4314561;33;20040;-74
2021/12/19 12:49:18;;;;;;;6.30;2.80;;;;;;;3.95;100.00;98262.47;4307331;33;20041;-75